createdAt,value
2017-07-05T00:02:19.213Z,5.90
2017-07-05T00:04:46.547Z,6.10
2017-07-05T00:07:13.882Z,6.63
2017-07-05T00:09:41.255Z,5.80
2017-07-05T00:12:08.659Z,5.70
2017-07-05T00:14:35.990Z,5.80
2017-07-05T00:17:03.385Z,5.90
2017-07-05T00:19:30.718Z,8.67
2017-07-05T00:21:58.117Z,6.13
2017-07-05T00:24:25.485Z,5.23
2017-07-05T00:26:52.821Z,6.57
2017-07-05T00:29:20.174Z,5.77
2017-07-05T00:31:47.574Z,6.30
2017-07-05T00:34:14.909Z,5.87
2017-07-05T00:36:42.326Z,6.10
2017-07-05T00:39:09.668Z,6.10
2017-07-05T00:41:37.019Z,6.30
2017-07-05T00:44:04.353Z,6.30
2017-07-05T00:46:31.709Z,5.63
2017-07-05T00:48:59.164Z,6.03
2017-07-05T00:51:26.578Z,6.43
2017-07-05T00:53:54.006Z,6.00
2017-07-05T00:56:21.459Z,6.07
2017-07-05T00:58:48.820Z,6.20
2017-07-05T01:01:16.226Z,7.30
2017-07-05T01:03:43.653Z,5.67
2017-07-05T01:06:11.059Z,6.23
2017-07-05T01:08:38.429Z,6.57
2017-07-05T01:11:05.798Z,6.00
2017-07-05T01:13:33.127Z,5.83
2017-07-05T01:16:00.502Z,6.07
2017-07-05T01:18:27.864Z,6.60
2017-07-05T01:20:55.183Z,5.83
2017-07-05T01:23:22.593Z,5.90
2017-07-05T01:25:49.909Z,6.10
2017-07-05T01:28:17.263Z,6.63
2017-07-05T01:30:44.726Z,6.30
2017-07-05T01:33:12.085Z,7.23
2017-07-05T01:35:39.464Z,7.97
2017-07-05T01:38:07.409Z,6.47
2017-07-05T01:40:34.787Z,6.77
2017-07-05T01:43:02.121Z,5.93
2017-07-05T01:45:29.511Z,5.83
2017-07-05T01:47:56.879Z,6.10
2017-07-05T01:50:24.205Z,6.00
2017-07-05T01:52:51.588Z,6.17
2017-07-05T01:55:18.958Z,6.10
2017-07-05T01:57:46.429Z,6.60
2017-07-05T02:00:13.849Z,6.77
2017-07-05T02:02:41.306Z,7.70
2017-07-05T02:05:08.725Z,6.50
2017-07-05T02:07:36.077Z,6.53
2017-07-05T02:10:03.482Z,6.23
2017-07-05T02:12:30.830Z,6.17
2017-07-05T02:14:58.206Z,6.00
2017-07-05T02:17:25.537Z,6.60
2017-07-05T02:19:52.918Z,6.83
2017-07-05T02:22:20.286Z,6.57
2017-07-05T02:24:47.618Z,7.17
2017-07-05T02:27:15.015Z,8.00
2017-07-05T02:29:42.447Z,6.73
2017-07-05T02:32:09.803Z,6.60
2017-07-05T02:34:37.113Z,7.10
2017-07-05T02:37:04.518Z,6.60
2017-07-05T02:39:31.837Z,6.47
2017-07-05T02:41:59.157Z,6.90
2017-07-05T02:44:26.513Z,9.23
2017-07-05T02:46:53.911Z,7.30
2017-07-05T02:49:21.189Z,7.23
2017-07-05T02:51:48.555Z,6.80
2017-07-05T02:54:15.941Z,7.63
2017-07-05T02:56:43.356Z,6.63
2017-07-05T02:59:10.747Z,6.73
2017-07-05T03:01:38.138Z,7.50
2017-07-05T03:04:05.497Z,6.63
2017-07-05T03:06:32.955Z,7.40
2017-07-05T03:09:00.301Z,7.90
2017-07-05T03:11:27.672Z,7.40
2017-07-05T03:13:55.111Z,10.40
2017-07-05T03:16:22.440Z,9.77
2017-07-05T03:18:49.847Z,7.53
2017-07-05T03:21:17.224Z,6.83
2017-07-05T03:23:44.634Z,5.83
2017-07-05T03:26:11.983Z,6.23
2017-07-05T03:28:39.427Z,6.30
2017-07-05T03:31:06.786Z,5.67
2017-07-05T03:33:34.183Z,5.57
2017-07-05T03:36:01.616Z,6.33
2017-07-05T03:38:28.993Z,6.13
2017-07-05T03:40:56.327Z,6.40
2017-07-05T03:43:23.736Z,8.17
2017-07-05T03:45:51.156Z,7.00
2017-07-05T03:48:18.482Z,6.93
2017-07-05T03:50:46.050Z,6.70
2017-07-05T03:53:13.421Z,6.80
2017-07-05T03:55:40.802Z,5.67
2017-07-05T03:58:08.187Z,5.53
2017-07-05T04:00:35.549Z,7.05
2017-07-05T04:03:03.533Z,9.43
2017-07-05T04:05:30.893Z,6.03
2017-07-05T04:07:58.225Z,7.03
2017-07-05T04:10:25.553Z,6.40
2017-07-05T04:12:53.003Z,6.30
2017-07-05T04:15:20.326Z,7.23
2017-07-05T04:17:47.665Z,7.43
2017-07-05T04:20:15.023Z,8.50
2017-07-05T04:22:42.390Z,9.97
2017-07-05T04:25:09.789Z,12.80
2017-07-05T04:27:37.190Z,8.03
2017-07-05T04:30:04.663Z,8.60
2017-07-05T04:32:31.998Z,7.30
2017-07-05T04:34:59.355Z,8.60
2017-07-05T04:37:26.733Z,8.27
2017-07-05T04:39:54.047Z,7.90
2017-07-05T04:42:21.416Z,11.53
2017-07-05T04:44:48.803Z,7.73
2017-07-05T04:47:16.183Z,10.03
2017-07-05T04:49:43.668Z,8.47
2017-07-05T04:52:10.993Z,8.13
2017-07-05T04:54:38.664Z,7.90
2017-07-05T04:57:06.062Z,7.10
2017-07-05T04:59:33.380Z,7.97
2017-07-05T05:02:00.824Z,7.77
2017-07-05T05:04:28.279Z,8.47
2017-07-05T05:06:55.650Z,7.50
2017-07-05T05:09:23.024Z,6.90
2017-07-05T05:11:50.493Z,8.33
2017-07-05T05:14:17.846Z,9.47
2017-07-05T05:16:45.169Z,9.20
2017-07-05T05:19:12.554Z,9.43
2017-07-05T05:21:39.885Z,7.87
2017-07-05T05:24:07.299Z,7.40
2017-07-05T05:26:34.747Z,7.60
2017-07-05T05:29:02.085Z,6.77
2017-07-05T05:31:29.515Z,10.20
2017-07-05T05:33:56.939Z,8.03
2017-07-05T05:36:24.294Z,7.77
2017-07-05T05:38:51.613Z,7.13
2017-07-05T05:41:19.046Z,9.47
2017-07-05T05:43:46.422Z,7.50
2017-07-05T05:46:13.798Z,6.77
2017-07-05T05:48:41.198Z,6.80
2017-07-05T05:51:08.586Z,7.13
2017-07-05T05:53:35.904Z,8.37
2017-07-05T05:56:03.346Z,7.90
2017-07-05T05:58:31.014Z,8.60
2017-07-05T06:00:58.345Z,7.77
2017-07-05T06:03:26.083Z,7.33
2017-07-05T06:05:53.422Z,7.60
2017-07-05T06:08:21.645Z,7.73
2017-07-05T06:10:49.042Z,7.70
2017-07-05T06:13:16.377Z,8.43
2017-07-05T06:15:43.741Z,8.07
2017-07-05T06:18:11.098Z,8.27
2017-07-05T06:20:38.439Z,7.20
2017-07-05T06:23:05.757Z,7.20
2017-07-05T06:25:33.349Z,7.17
2017-07-05T06:28:00.674Z,7.17
2017-07-05T06:30:28.029Z,6.40
2017-07-05T06:32:55.465Z,6.90
2017-07-05T06:35:22.776Z,6.83
2017-07-05T06:37:50.146Z,7.00
2017-07-05T06:40:17.535Z,6.40
2017-07-05T06:42:44.872Z,5.87
2017-07-05T06:45:12.295Z,6.80
2017-07-05T06:47:39.676Z,5.67
2017-07-05T06:50:07.010Z,5.93
2017-07-05T06:52:34.359Z,5.60
2017-07-05T06:55:01.811Z,5.17
2017-07-05T06:57:29.387Z,5.77
2017-07-05T06:59:56.709Z,5.50
2017-07-05T07:02:24.104Z,6.07
2017-07-05T07:04:51.454Z,6.20
2017-07-05T07:07:18.782Z,7.60
2017-07-05T07:09:46.162Z,5.80
2017-07-05T07:12:13.550Z,6.47
2017-07-05T07:14:40.951Z,5.80
2017-07-05T07:17:08.382Z,5.60
2017-07-05T07:19:35.855Z,5.30
2017-07-05T07:22:03.215Z,6.40
2017-07-05T07:24:30.584Z,5.87
2017-07-05T07:26:57.970Z,6.77
2017-07-05T07:29:25.328Z,6.10
2017-07-05T07:31:52.717Z,6.73
2017-07-05T07:34:20.067Z,5.73
2017-07-05T07:36:47.483Z,6.30
2017-07-05T07:39:14.867Z,5.77
2017-07-05T07:41:42.228Z,5.17
2017-07-05T07:44:09.557Z,5.13
2017-07-05T07:46:36.933Z,7.47
2017-07-05T07:49:04.343Z,5.37
2017-07-05T07:51:31.683Z,5.47
2017-07-05T07:53:59.125Z,5.40
2017-07-05T07:56:26.472Z,5.27
2017-07-05T07:58:53.911Z,5.60
2017-07-05T08:01:21.280Z,5.07
2017-07-05T08:03:48.679Z,5.10
2017-07-05T08:06:16.029Z,5.20
2017-07-05T08:08:43.417Z,4.83
2017-07-05T08:11:10.754Z,4.60
2017-07-05T08:13:38.081Z,4.63
2017-07-05T08:16:05.486Z,3.97
2017-07-05T08:18:32.882Z,4.80
2017-07-05T08:21:00.243Z,4.67
2017-07-05T08:23:27.658Z,4.70
2017-07-05T08:25:55.056Z,4.97
2017-07-05T08:28:22.455Z,5.53
2017-07-05T08:30:49.846Z,4.70
2017-07-05T08:33:17.287Z,4.43
2017-07-05T08:35:44.618Z,4.47
2017-07-05T08:38:11.973Z,4.47
2017-07-05T08:40:39.315Z,4.50
2017-07-05T08:43:06.711Z,5.20
2017-07-05T08:45:34.061Z,4.83
2017-07-05T08:48:01.468Z,4.53
2017-07-05T08:50:29.099Z,4.60
2017-07-05T08:52:56.482Z,4.90
2017-07-05T08:55:23.911Z,5.03
2017-07-05T08:57:51.469Z,4.40
2017-07-05T09:00:18.887Z,4.80
2017-07-05T09:02:46.253Z,3.93
2017-07-05T09:05:13.723Z,6.10
2017-07-05T09:07:41.159Z,4.47
2017-07-05T09:10:08.506Z,4.53
2017-07-05T09:12:35.922Z,4.80
2017-07-05T09:15:03.303Z,4.10
2017-07-05T09:17:31.398Z,4.60
2017-07-05T09:19:58.793Z,4.07
2017-07-05T09:22:26.206Z,4.30
2017-07-05T09:24:53.544Z,4.53
2017-07-05T09:27:21.030Z,5.27
2017-07-05T09:29:48.503Z,4.23
2017-07-05T09:32:15.881Z,4.17
2017-07-05T09:34:43.245Z,4.20
2017-07-05T09:37:10.654Z,4.10
2017-07-05T09:39:38.213Z,4.30
2017-07-05T09:42:05.585Z,4.87
2017-07-05T09:44:33.899Z,4.43
2017-07-05T09:47:01.294Z,4.60
2017-07-05T09:49:28.618Z,4.00
2017-07-05T09:51:56.014Z,4.20
2017-07-05T09:54:23.371Z,4.60
2017-07-05T09:56:50.693Z,5.20
2017-07-05T09:59:18.068Z,4.50
2017-07-05T10:01:45.423Z,5.10
2017-07-05T10:04:12.767Z,4.33
2017-07-05T10:06:40.150Z,4.77
2017-07-05T10:09:07.489Z,5.23
2017-07-05T10:11:34.879Z,4.70
2017-07-05T10:14:02.242Z,4.77
2017-07-05T10:16:29.607Z,5.30
2017-07-05T10:18:57.008Z,5.30
2017-07-05T10:21:24.392Z,5.17
2017-07-05T10:23:51.721Z,5.10
2017-07-05T10:26:19.050Z,4.30
2017-07-05T10:28:46.435Z,4.73
2017-07-05T10:31:13.760Z,4.67
2017-07-05T10:33:41.150Z,5.00
2017-07-05T10:36:08.571Z,4.53
2017-07-05T10:38:36.074Z,4.27
2017-07-05T10:41:03.387Z,5.07
2017-07-05T10:43:30.856Z,5.20
2017-07-05T10:45:58.247Z,4.70
2017-07-05T10:48:25.562Z,4.77
2017-07-05T10:50:52.951Z,4.80
2017-07-05T10:53:20.321Z,5.00
2017-07-05T10:55:47.650Z,4.53
2017-07-05T10:58:15.100Z,5.03
2017-07-05T11:00:42.423Z,5.33
2017-07-05T11:03:09.796Z,6.60
2017-07-05T11:05:37.191Z,5.13
2017-07-05T11:08:04.555Z,4.70
2017-07-05T11:10:31.922Z,4.50
2017-07-05T11:12:59.285Z,4.83
2017-07-05T11:15:26.662Z,5.13
2017-07-05T11:17:53.962Z,5.00
2017-07-05T11:20:21.370Z,5.57
2017-07-05T11:22:48.760Z,5.27
2017-07-05T11:25:16.077Z,4.93
2017-07-05T11:27:43.435Z,5.30
2017-07-05T11:30:10.798Z,4.73
2017-07-05T11:32:38.128Z,4.50
2017-07-05T11:35:05.552Z,5.13
2017-07-05T11:37:32.894Z,4.50
2017-07-05T11:40:00.258Z,4.60
2017-07-05T11:42:27.626Z,4.27
2017-07-05T11:44:55.023Z,4.90
2017-07-05T11:47:22.353Z,4.20
2017-07-05T11:49:49.806Z,5.00
2017-07-05T11:52:17.124Z,5.20
2017-07-05T11:54:44.542Z,4.60
2017-07-05T11:57:12.040Z,4.53
2017-07-05T11:59:39.512Z,4.70
2017-07-05T12:02:06.910Z,4.03
2017-07-05T12:04:34.326Z,4.13
2017-07-05T12:07:01.726Z,4.40
2017-07-05T12:09:29.731Z,4.37
2017-07-05T12:11:57.146Z,4.70
2017-07-05T12:14:24.495Z,4.80
2017-07-05T12:16:51.859Z,5.43
2017-07-05T12:19:19.299Z,4.67
2017-07-05T12:21:46.655Z,4.83
2017-07-05T12:24:13.990Z,4.23
2017-07-05T12:26:41.436Z,5.03
2017-07-05T12:29:08.824Z,5.30
2017-07-05T12:31:36.271Z,5.10
2017-07-05T12:34:03.690Z,5.97
2017-07-05T12:36:31.028Z,5.10
2017-07-05T12:38:58.407Z,4.67
2017-07-05T12:41:25.806Z,4.80
2017-07-05T12:43:53.137Z,5.07
2017-07-05T12:46:20.605Z,5.57
2017-07-05T12:48:47.967Z,5.43
2017-07-05T12:51:15.318Z,5.00
2017-07-05T12:53:42.662Z,4.80
2017-07-05T12:56:10.051Z,4.90
2017-07-05T12:58:37.411Z,4.73
2017-07-05T13:01:04.878Z,5.10
2017-07-05T13:03:32.237Z,5.13
2017-07-05T13:05:59.647Z,4.43
2017-07-05T13:08:26.961Z,4.27
2017-07-05T13:10:54.387Z,5.67
2017-07-05T13:13:21.752Z,4.10
2017-07-05T13:15:49.082Z,4.07
2017-07-05T13:18:16.475Z,4.57
2017-07-05T13:20:43.786Z,4.90
2017-07-05T13:23:11.182Z,5.10
2017-07-05T13:25:38.557Z,5.30
2017-07-05T13:28:05.927Z,5.20
2017-07-05T13:30:33.280Z,4.67
2017-07-05T13:33:00.657Z,4.93
2017-07-05T13:35:28.005Z,4.80
2017-07-05T13:37:55.359Z,4.13
2017-07-05T13:40:22.811Z,4.60
2017-07-05T13:42:50.214Z,4.37
2017-07-05T13:45:17.549Z,4.80
2017-07-05T13:47:44.996Z,4.80
2017-07-05T13:50:12.350Z,5.53
2017-07-05T13:52:39.739Z,5.17
2017-07-05T13:55:07.215Z,5.00
2017-07-05T13:57:34.583Z,4.20
2017-07-05T14:00:01.970Z,5.50
2017-07-05T14:02:29.441Z,4.93
2017-07-05T14:04:56.791Z,5.23
2017-07-05T14:07:24.137Z,5.20
2017-07-05T14:09:52.619Z,5.27
2017-07-05T14:12:19.980Z,4.87
2017-07-05T14:14:47.451Z,4.80
2017-07-05T14:17:14.810Z,8.93
2017-07-05T14:19:42.137Z,4.33
2017-07-05T14:22:09.543Z,5.30
2017-07-05T14:24:36.927Z,5.47
2017-07-05T14:27:04.327Z,5.43
2017-07-05T14:29:31.733Z,5.70
2017-07-05T14:31:59.151Z,5.10
2017-07-05T14:34:26.466Z,5.00
2017-07-05T14:36:53.856Z,5.10
2017-07-05T14:39:21.239Z,5.77
2017-07-05T14:41:48.578Z,5.20
2017-07-05T14:44:15.922Z,5.80
2017-07-05T14:46:43.367Z,5.17
2017-07-05T14:49:10.678Z,5.03
2017-07-05T14:51:38.896Z,6.83
2017-07-05T14:54:06.291Z,5.50
2017-07-05T14:56:33.674Z,5.20
2017-07-05T14:59:01.007Z,5.10
2017-07-05T15:01:28.677Z,5.20
2017-07-05T15:03:56.029Z,5.00
2017-07-05T15:06:23.468Z,5.10
2017-07-05T15:08:50.850Z,5.83
2017-07-05T15:11:18.176Z,5.27
2017-07-05T15:13:45.551Z,5.70
2017-07-05T15:16:12.988Z,4.90
2017-07-05T15:18:40.298Z,5.43
2017-07-05T15:21:07.701Z,5.20
2017-07-05T15:23:35.106Z,6.30
2017-07-05T15:26:02.508Z,5.90
2017-07-05T15:28:29.860Z,7.00
2017-07-05T15:30:57.275Z,5.20
2017-07-05T15:33:24.643Z,6.20
2017-07-05T15:35:52.035Z,5.93
2017-07-05T15:38:19.458Z,5.90
2017-07-05T15:40:46.879Z,5.20
2017-07-05T15:43:14.251Z,5.87
2017-07-05T15:45:41.625Z,5.30
2017-07-05T15:48:09.044Z,5.50
2017-07-05T15:50:36.429Z,5.80
2017-07-05T15:53:03.919Z,5.40
2017-07-05T15:55:31.235Z,5.97
2017-07-05T15:57:58.654Z,5.40
2017-07-05T16:00:26.084Z,5.27
2017-07-05T16:02:53.448Z,6.00
2017-07-05T16:05:20.795Z,7.27
2017-07-05T16:07:48.171Z,6.07
2017-07-05T16:10:15.483Z,5.43
2017-07-05T16:12:42.915Z,6.40
2017-07-05T16:15:10.341Z,5.43
2017-07-05T16:17:37.674Z,6.30
2017-07-05T16:20:05.082Z,6.03
2017-07-05T16:22:32.454Z,6.17
2017-07-05T16:24:59.843Z,5.63
2017-07-05T16:27:27.204Z,6.10
2017-07-05T16:29:54.633Z,5.20
2017-07-05T16:32:22.103Z,5.90
2017-07-05T16:34:49.487Z,6.43
2017-07-05T16:37:16.860Z,9.60
2017-07-05T16:39:44.218Z,5.50
2017-07-05T16:42:11.534Z,5.83
2017-07-05T16:44:38.959Z,5.93
2017-07-05T16:47:06.323Z,5.47
2017-07-05T16:49:33.707Z,6.10
2017-07-05T16:52:01.115Z,5.60
2017-07-05T16:54:28.503Z,5.70
2017-07-05T16:56:55.891Z,6.80
2017-07-05T16:59:23.293Z,5.70
2017-07-05T17:01:50.660Z,6.30
2017-07-05T17:04:18.114Z,6.43
2017-07-05T17:06:45.567Z,6.17
2017-07-05T17:09:12.926Z,7.23
2017-07-05T17:11:40.245Z,6.27
2017-07-05T17:14:07.691Z,6.37
2017-07-05T17:16:35.068Z,7.10
2017-07-05T17:19:02.429Z,6.60
2017-07-05T17:21:29.896Z,6.70
2017-07-05T17:23:57.272Z,7.40
2017-07-05T17:26:24.633Z,6.90
2017-07-05T17:28:52.672Z,11.63
2017-07-05T17:31:19.995Z,7.70
2017-07-05T17:33:47.370Z,6.63
2017-07-05T17:36:14.805Z,6.00
2017-07-05T17:38:42.215Z,6.10
2017-07-05T17:41:09.660Z,6.40
2017-07-05T17:43:37.078Z,7.20
2017-07-05T17:46:04.659Z,6.90
2017-07-05T17:48:31.993Z,6.00
2017-07-05T17:50:59.381Z,6.00
2017-07-05T17:53:26.710Z,8.97
2017-07-05T17:55:54.104Z,6.60
2017-07-05T17:58:21.540Z,18.50
2017-07-05T18:00:48.870Z,27.57
2017-07-05T18:03:16.271Z,18.13
2017-07-05T18:05:43.673Z,22.50
2017-07-05T18:08:11.104Z,20.50
2017-07-05T18:10:38.534Z,10.20
2017-07-05T18:13:05.905Z,9.07
2017-07-05T18:15:33.282Z,12.93
2017-07-05T18:18:00.674Z,16.20
2017-07-05T18:20:28.112Z,10.13
2017-07-05T18:22:55.487Z,7.43
2017-07-05T18:25:22.817Z,8.67
2017-07-05T18:27:50.209Z,7.67
2017-07-05T18:30:18.390Z,7.63
2017-07-05T18:32:45.770Z,6.20
2017-07-05T18:35:13.140Z,5.70
2017-07-05T18:37:40.492Z,6.73
2017-07-05T18:40:07.909Z,7.73
2017-07-05T18:42:35.266Z,5.77
2017-07-05T18:45:02.616Z,6.60
2017-07-05T18:47:30.051Z,8.13
2017-07-05T18:49:57.894Z,8.40
2017-07-05T18:52:25.272Z,8.50
2017-07-05T18:54:52.590Z,7.60
2017-07-05T18:57:20.679Z,7.63
2017-07-05T18:59:47.994Z,9.03
2017-07-05T19:02:15.388Z,9.77
2017-07-05T19:04:42.853Z,8.10
2017-07-05T19:07:10.174Z,11.03
2017-07-05T19:09:37.497Z,7.63
2017-07-05T19:12:05.254Z,8.40
2017-07-05T19:14:32.665Z,8.70
2017-07-05T19:17:00.041Z,9.40
2017-07-05T19:19:27.418Z,8.53
2017-07-05T19:21:55.693Z,11.57
2017-07-05T19:24:24.041Z,9.73
2017-07-05T19:26:51.394Z,10.30
2017-07-05T19:29:18.749Z,14.93
2017-07-05T19:31:46.127Z,9.60
2017-07-05T19:34:13.521Z,11.27
2017-07-05T19:36:40.839Z,10.83
2017-07-05T19:39:08.173Z,10.90
2017-07-05T19:41:35.527Z,10.63
2017-07-05T19:44:02.935Z,10.80
2017-07-05T19:46:31.154Z,8.93
2017-07-05T19:48:58.535Z,10.90
2017-07-05T19:51:26.807Z,10.60
2017-07-05T19:53:54.248Z,9.90
2017-07-05T19:56:21.594Z,9.93
2017-07-05T19:58:48.939Z,9.17
2017-07-05T20:01:16.515Z,11.20
2017-07-05T20:03:43.910Z,10.17
2017-07-05T20:06:11.490Z,10.03
2017-07-05T20:08:38.985Z,10.33
2017-07-05T20:11:06.370Z,11.00
2017-07-05T20:13:33.790Z,11.13
2017-07-05T20:16:01.213Z,12.10
2017-07-05T20:18:28.634Z,11.80
2017-07-05T20:20:56.002Z,10.80
2017-07-05T20:23:23.413Z,11.93
2017-07-05T20:25:50.777Z,12.70
2017-07-05T20:28:18.170Z,11.07
2017-07-05T20:30:45.538Z,10.50
2017-07-05T20:33:12.939Z,9.70
2017-07-05T20:35:40.293Z,9.00
2017-07-05T20:38:07.670Z,12.53
2017-07-05T20:40:35.095Z,9.20
2017-07-05T20:43:02.397Z,9.27
2017-07-05T20:45:29.745Z,9.97
2017-07-05T20:47:57.098Z,9.70
2017-07-05T20:50:24.537Z,8.90
2017-07-05T20:52:51.919Z,8.70
2017-07-05T20:55:19.307Z,9.50
2017-07-05T20:57:46.653Z,8.80
2017-07-05T21:00:13.975Z,8.50
2017-07-05T21:02:41.330Z,8.07
2017-07-05T21:05:08.647Z,7.67
2017-07-05T21:07:35.994Z,13.13
2017-07-05T21:10:03.394Z,7.73
2017-07-05T21:12:30.712Z,7.60
2017-07-05T21:14:58.119Z,8.83
2017-07-05T21:17:25.527Z,7.80
2017-07-05T21:19:52.866Z,11.43
2017-07-05T21:22:20.193Z,8.33
2017-07-05T21:24:47.587Z,8.33
2017-07-05T21:27:14.910Z,7.67
2017-07-05T21:29:42.239Z,7.93
2017-07-05T21:32:09.613Z,7.97
2017-07-05T21:34:37.007Z,7.60
2017-07-05T21:37:04.345Z,9.63
2017-07-05T21:39:31.803Z,8.43
2017-07-05T21:41:59.255Z,7.57
2017-07-05T21:44:26.558Z,8.97
2017-07-05T21:46:53.936Z,6.67
2017-07-05T21:49:21.355Z,6.83
2017-07-05T21:51:48.743Z,6.43
2017-07-05T21:54:16.114Z,6.97
2017-07-05T21:56:43.593Z,5.93
2017-07-05T21:59:10.919Z,8.00
2017-07-05T22:01:38.292Z,6.07
2017-07-05T22:04:05.633Z,6.20
2017-07-05T22:06:32.991Z,5.90
2017-07-05T22:09:00.361Z,8.80
2017-07-05T22:11:27.717Z,5.40
2017-07-05T22:13:55.061Z,6.10
2017-07-05T22:16:22.474Z,5.93
2017-07-05T22:18:49.826Z,5.20
2017-07-05T22:21:17.210Z,6.43
2017-07-05T22:23:44.617Z,5.90
2017-07-05T22:26:11.947Z,7.77
2017-07-05T22:28:39.289Z,5.27
2017-07-05T22:31:06.689Z,5.80
2017-07-05T22:33:34.034Z,5.83
2017-07-05T22:36:01.380Z,6.20
2017-07-05T22:38:28.762Z,5.60
2017-07-05T22:40:56.269Z,7.97
2017-07-05T22:43:23.630Z,5.63
2017-07-05T22:45:51.118Z,11.03
2017-07-05T22:48:18.513Z,6.70
2017-07-05T22:50:45.837Z,8.07
2017-07-05T22:53:13.275Z,5.50
2017-07-05T22:55:40.604Z,5.03
2017-07-05T22:58:07.932Z,9.43
2017-07-05T23:00:35.297Z,7.47
2017-07-05T23:03:02.665Z,9.80
2017-07-05T23:05:30.736Z,9.90
2017-07-05T23:07:58.396Z,9.63
2017-07-05T23:10:25.756Z,8.50
2017-07-05T23:12:53.099Z,8.17
2017-07-05T23:15:20.492Z,10.53
2017-07-05T23:17:47.875Z,7.10
2017-07-05T23:20:15.215Z,6.13
2017-07-05T23:22:42.627Z,6.50
2017-07-05T23:25:10.030Z,8.50
2017-07-05T23:27:37.423Z,5.60
2017-07-05T23:30:04.801Z,5.97
2017-07-05T23:32:32.179Z,5.93
2017-07-05T23:34:59.493Z,6.20
2017-07-05T23:37:26.867Z,6.40
2017-07-05T23:39:54.231Z,5.97
2017-07-05T23:42:21.677Z,6.03
2017-07-05T23:44:49.047Z,6.50
2017-07-05T23:47:16.472Z,6.73
2017-07-05T23:49:43.802Z,6.30
2017-07-05T23:52:11.181Z,6.37
2017-07-05T23:54:38.637Z,7.77
2017-07-05T23:57:06.031Z,7.10
2017-07-05T23:59:33.401Z,6.93
